sensor_id;sensor_type;location;lat;lon;timestamp;P1;durP1;ratioP1;P2;durP2;ratioP2
12908;SDS011;6522;49.622;6.126;2024-03-23T00:54:19;23.15;;;16.12;;
12908;SDS011;6522;49.622;6.126;2024-03-23T00:57:06;20.00;;;14.32;;
12908;SDS011;6522;49.622;6.126;2024-03-23T00:59:53;20.23;;;16.17;;
12908;SDS011;6522;49.622;6.126;2024-03-23T01:02:40;17.37;;;14.10;;
12908;SDS011;6522;49.622;6.126;2024-03-23T01:05:26;16.30;;;13.27;;
12908;SDS011;6522;49.622;6.126;2024-03-23T01:08:13;19.50;;;13.90;;
12908;SDS011;6522;49.622;6.126;2024-03-23T01:11:00;16.55;;;14.70;;
12908;SDS011;6522;49.622;6.126;2024-03-23T01:13:47;16.77;;;13.62;;
12908;SDS011;6522;49.622;6.126;2024-03-23T01:16:34;14.98;;;12.07;;
12908;SDS011;6522;49.622;6.126;2024-03-23T01:19:21;14.35;;;12.35;;
12908;SDS011;6522;49.622;6.126;2024-03-23T01:22:08;13.80;;;11.23;;
12908;SDS011;6522;49.622;6.126;2024-03-23T01:24:54;11.15;;;9.98;;
12908;SDS011;6522;49.622;6.126;2024-03-23T01:27:41;11.73;;;10.35;;
12908;SDS011;6522;49.622;6.126;2024-03-23T01:30:28;11.07;;;9.90;;
12908;SDS011;6522;49.622;6.126;2024-03-23T01:33:15;11.02;;;10.00;;
12908;SDS011;6522;49.622;6.126;2024-03-23T01:36:02;11.12;;;10.18;;
12908;SDS011;6522;49.622;6.126;2024-03-23T01:38:48;11.27;;;10.48;;
12908;SDS011;6522;49.622;6.126;2024-03-23T01:41:35;9.77;;;8.98;;
12908;SDS011;6522;49.622;6.126;2024-03-23T01:44:22;11.88;;;11.27;;
12908;SDS011;6522;49.622;6.126;2024-03-23T01:47:08;12.50;;;11.80;;
12908;SDS011;6522;49.622;6.126;2024-03-23T01:49:55;11.98;;;11.48;;
12908;SDS011;6522;49.622;6.126;2024-03-23T01:52:42;11.40;;;11.00;;
12908;SDS011;6522;49.622;6.126;2024-03-23T01:55:29;11.02;;;10.63;;
12908;SDS011;6522;49.622;6.126;2024-03-23T01:58:16;10.93;;;10.52;;
12908;SDS011;6522;49.622;6.126;2024-03-23T02:01:04;10.60;;;10.20;;
12908;SDS011;6522;49.622;6.126;2024-03-23T02:03:51;10.35;;;9.95;;
12908;SDS011;6522;49.622;6.126;2024-03-23T02:06:37;10.57;;;10.18;;
12908;SDS011;6522;49.622;6.126;2024-03-23T02:09:24;10.50;;;10.10;;
12908;SDS011;6522;49.622;6.126;2024-03-23T02:12:11;9.90;;;9.50;;
12908;SDS011;6522;49.622;6.126;2024-03-23T02:14:57;9.35;;;9.05;;
12908;SDS011;6522;49.622;6.126;2024-03-23T02:17:44;9.65;;;9.25;;
12908;SDS011;6522;49.622;6.126;2024-03-23T02:20:31;8.90;;;8.60;;
12908;SDS011;6522;49.622;6.126;2024-03-23T02:23:18;7.80;;;7.40;;
12908;SDS011;6522;49.622;6.126;2024-03-23T02:26:05;8.10;;;7.70;;
12908;SDS011;6522;49.622;6.126;2024-03-23T02:28:52;11.05;;;10.55;;
12908;SDS011;6522;49.622;6.126;2024-03-23T02:31:39;9.80;;;9.30;;
12908;SDS011;6522;49.622;6.126;2024-03-23T02:34:25;11.18;;;10.68;;
12908;SDS011;6522;49.622;6.126;2024-03-23T02:37:12;10.90;;;10.40;;
12908;SDS011;6522;49.622;6.126;2024-03-23T02:39:59;9.57;;;9.18;;
12908;SDS011;6522;49.622;6.126;2024-03-23T02:42:45;10.13;;;9.63;;
12908;SDS011;6522;49.622;6.126;2024-03-23T02:45:32;9.15;;;8.65;;
12908;SDS011;6522;49.622;6.126;2024-03-23T02:48:19;8.20;;;7.90;;
12908;SDS011;6522;49.622;6.126;2024-03-23T02:51:05;9.35;;;8.95;;
12908;SDS011;6522;49.622;6.126;2024-03-23T02:53:52;9.65;;;9.15;;
12908;SDS011;6522;49.622;6.126;2024-03-23T02:56:40;9.35;;;8.85;;
12908;SDS011;6522;49.622;6.126;2024-03-23T02:59:27;9.13;;;8.73;;
12908;SDS011;6522;49.622;6.126;2024-03-23T03:02:16;10.23;;;9.73;;
12908;SDS011;6522;49.622;6.126;2024-03-23T03:05:01;10.30;;;9.80;;
12908;SDS011;6522;49.622;6.126;2024-03-23T03:07:47;9.73;;;9.27;;
12908;SDS011;6522;49.622;6.126;2024-03-23T03:10:34;8.73;;;8.32;;
12908;SDS011;6522;49.622;6.126;2024-03-23T03:13:21;8.77;;;8.25;;
12908;SDS011;6522;49.622;6.126;2024-03-23T03:16:09;8.60;;;8.00;;
12908;SDS011;6522;49.622;6.126;2024-03-23T03:18:55;7.72;;;7.32;;
12908;SDS011;6522;49.622;6.126;2024-03-23T03:21:42;7.40;;;7.10;;
12908;SDS011;6522;49.622;6.126;2024-03-23T03:24:29;6.10;;;5.70;;
12908;SDS011;6522;49.622;6.126;2024-03-23T03:27:16;8.45;;;8.05;;
12908;SDS011;6522;49.622;6.126;2024-03-23T03:30:02;8.20;;;7.75;;
12908;SDS011;6522;49.622;6.126;2024-03-23T03:32:50;7.97;;;7.60;;
12908;SDS011;6522;49.622;6.126;2024-03-23T03:35:36;7.78;;;7.45;;
12908;SDS011;6522;49.622;6.126;2024-03-23T03:38:23;7.53;;;7.12;;
12908;SDS011;6522;49.622;6.126;2024-03-23T03:41:10;6.80;;;6.50;;
12908;SDS011;6522;49.622;6.126;2024-03-23T03:43:57;8.30;;;7.72;;
12908;SDS011;6522;49.622;6.126;2024-03-23T03:46:44;7.15;;;6.85;;
12908;SDS011;6522;49.622;6.126;2024-03-23T03:49:31;7.50;;;7.20;;
12908;SDS011;6522;49.622;6.126;2024-03-23T03:52:18;7.40;;;7.10;;
12908;SDS011;6522;49.622;6.126;2024-03-23T03:55:06;7.82;;;7.43;;
12908;SDS011;6522;49.622;6.126;2024-03-23T03:57:53;8.25;;;7.87;;
12908;SDS011;6522;49.622;6.126;2024-03-23T04:00:39;7.12;;;6.82;;
12908;SDS011;6522;49.622;6.126;2024-03-23T04:03:26;6.25;;;5.95;;
12908;SDS011;6522;49.622;6.126;2024-03-23T04:06:18;7.95;;;7.65;;
12908;SDS011;6522;49.622;6.126;2024-03-23T04:09:00;8.23;;;7.82;;
12908;SDS011;6522;49.622;6.126;2024-03-23T04:11:47;8.50;;;8.10;;
12908;SDS011;6522;49.622;6.126;2024-03-23T04:14:33;7.00;;;6.70;;
12908;SDS011;6522;49.622;6.126;2024-03-23T04:17:20;8.00;;;7.60;;
12908;SDS011;6522;49.622;6.126;2024-03-23T04:20:07;8.60;;;8.00;;
12908;SDS011;6522;49.622;6.126;2024-03-23T04:22:54;7.12;;;6.75;;
12908;SDS011;6522;49.622;6.126;2024-03-23T04:25:40;7.82;;;7.18;;
12908;SDS011;6522;49.622;6.126;2024-03-23T04:28:27;7.65;;;6.93;;
12908;SDS011;6522;49.622;6.126;2024-03-23T04:31:14;8.05;;;7.55;;
12908;SDS011;6522;49.622;6.126;2024-03-23T04:34:01;7.90;;;7.45;;
12908;SDS011;6522;49.622;6.126;2024-03-23T04:36:47;8.13;;;7.00;;
12908;SDS011;6522;49.622;6.126;2024-03-23T04:39:35;7.60;;;7.10;;
12908;SDS011;6522;49.622;6.126;2024-03-23T04:42:21;7.60;;;7.10;;
12908;SDS011;6522;49.622;6.126;2024-03-23T04:45:07;6.40;;;5.80;;
12908;SDS011;6522;49.622;6.126;2024-03-23T04:47:54;8.25;;;7.72;;
12908;SDS011;6522;49.622;6.126;2024-03-23T04:50:41;6.85;;;6.55;;
12908;SDS011;6522;49.622;6.126;2024-03-23T04:53:28;9.30;;;8.70;;
12908;SDS011;6522;49.622;6.126;2024-03-23T04:56:15;7.68;;;7.18;;
12908;SDS011;6522;49.622;6.126;2024-03-23T04:59:02;8.10;;;7.60;;
12908;SDS011;6522;49.622;6.126;2024-03-23T05:01:48;8.10;;;7.50;;
12908;SDS011;6522;49.622;6.126;2024-03-23T05:04:35;8.65;;;7.95;;
12908;SDS011;6522;49.622;6.126;2024-03-23T05:07:22;8.38;;;7.78;;
12908;SDS011;6522;49.622;6.126;2024-03-23T05:10:09;8.23;;;7.65;;
12908;SDS011;6522;49.622;6.126;2024-03-23T05:12:56;12.77;;;8.98;;
12908;SDS011;6522;49.622;6.126;2024-03-23T05:15:43;9.80;;;8.80;;
12908;SDS011;6522;49.622;6.126;2024-03-23T05:18:29;10.35;;;8.88;;
12908;SDS011;6522;49.622;6.126;2024-03-23T05:21:16;8.95;;;8.10;;
12908;SDS011;6522;49.622;6.126;2024-03-23T05:24:03;10.85;;;7.90;;
12908;SDS011;6522;49.622;6.126;2024-03-23T05:26:50;17.05;;;12.70;;
12908;SDS011;6522;49.622;6.126;2024-03-23T05:29:37;9.90;;;8.90;;
12908;SDS011;6522;49.622;6.126;2024-03-23T05:32:24;13.77;;;7.70;;
12908;SDS011;6522;49.622;6.126;2024-03-23T05:35:10;8.90;;;8.13;;
12908;SDS011;6522;49.622;6.126;2024-03-23T05:37:57;15.27;;;8.50;;
12908;SDS011;6522;49.622;6.126;2024-03-23T05:40:52;11.27;;;9.50;;
12908;SDS011;6522;49.622;6.126;2024-03-23T05:43:31;9.25;;;7.87;;
12908;SDS011;6522;49.622;6.126;2024-03-23T05:46:18;14.75;;;8.50;;
12908;SDS011;6522;49.622;6.126;2024-03-23T05:49:05;9.52;;;7.40;;
12908;SDS011;6522;49.622;6.126;2024-03-23T05:51:52;14.40;;;8.68;;
12908;SDS011;6522;49.622;6.126;2024-03-23T05:54:39;10.30;;;7.60;;
12908;SDS011;6522;49.622;6.126;2024-03-23T05:57:26;15.30;;;9.13;;
12908;SDS011;6522;49.622;6.126;2024-03-23T06:00:12;18.25;;;8.57;;
12908;SDS011;6522;49.622;6.126;2024-03-23T06:03:02;21.98;;;9.57;;
12908;SDS011;6522;49.622;6.126;2024-03-23T06:05:48;15.32;;;9.23;;
12908;SDS011;6522;49.622;6.126;2024-03-23T06:08:35;17.75;;;9.98;;
12908;SDS011;6522;49.622;6.126;2024-03-23T06:11:22;15.13;;;10.38;;
12908;SDS011;6522;49.622;6.126;2024-03-23T06:14:08;15.10;;;9.75;;
12908;SDS011;6522;49.622;6.126;2024-03-23T06:16:55;11.60;;;9.27;;
12908;SDS011;6522;49.622;6.126;2024-03-23T06:19:42;14.10;;;9.38;;
12908;SDS011;6522;49.622;6.126;2024-03-23T06:22:29;15.05;;;8.95;;
12908;SDS011;6522;49.622;6.126;2024-03-23T06:25:16;13.73;;;8.15;;
12908;SDS011;6522;49.622;6.126;2024-03-23T06:28:03;17.58;;;8.48;;
12908;SDS011;6522;49.622;6.126;2024-03-23T06:30:50;13.65;;;8.35;;
12908;SDS011;6522;49.622;6.126;2024-03-23T06:33:37;16.00;;;9.45;;
12908;SDS011;6522;49.622;6.126;2024-03-23T06:36:23;10.25;;;8.73;;
12908;SDS011;6522;49.622;6.126;2024-03-23T06:39:10;12.85;;;9.00;;
12908;SDS011;6522;49.622;6.126;2024-03-23T06:41:58;12.18;;;7.90;;
12908;SDS011;6522;49.622;6.126;2024-03-23T06:44:45;17.00;;;8.10;;
12908;SDS011;6522;49.622;6.126;2024-03-23T06:47:32;11.75;;;7.85;;
12908;SDS011;6522;49.622;6.126;2024-03-23T06:50:19;14.75;;;9.27;;
12908;SDS011;6522;49.622;6.126;2024-03-23T06:53:05;14.40;;;9.68;;
12908;SDS011;6522;49.622;6.126;2024-03-23T06:55:53;13.05;;;7.72;;
12908;SDS011;6522;49.622;6.126;2024-03-23T06:58:39;15.38;;;8.93;;
12908;SDS011;6522;49.622;6.126;2024-03-23T07:01:26;12.82;;;8.75;;
12908;SDS011;6522;49.622;6.126;2024-03-23T07:04:12;10.98;;;8.57;;
12908;SDS011;6522;49.622;6.126;2024-03-23T07:06:59;12.02;;;9.38;;
12908;SDS011;6522;49.622;6.126;2024-03-23T07:09:45;14.38;;;8.70;;
12908;SDS011;6522;49.622;6.126;2024-03-23T07:12:32;10.80;;;7.72;;
12908;SDS011;6522;49.622;6.126;2024-03-23T07:15:19;10.73;;;9.27;;
12908;SDS011;6522;49.622;6.126;2024-03-23T07:18:06;14.77;;;9.88;;
12908;SDS011;6522;49.622;6.126;2024-03-23T07:20:53;15.57;;;8.27;;
12908;SDS011;6522;49.622;6.126;2024-03-23T07:23:41;9.60;;;8.60;;
12908;SDS011;6522;49.622;6.126;2024-03-23T07:26:26;10.13;;;8.60;;
12908;SDS011;6522;49.622;6.126;2024-03-23T07:29:12;12.95;;;7.82;;
12908;SDS011;6522;49.622;6.126;2024-03-23T07:31:59;14.40;;;9.57;;
12908;SDS011;6522;49.622;6.126;2024-03-23T07:34:45;14.10;;;8.65;;
12908;SDS011;6522;49.622;6.126;2024-03-23T07:37:32;15.50;;;9.60;;
12908;SDS011;6522;49.622;6.126;2024-03-23T07:40:19;15.90;;;10.23;;
12908;SDS011;6522;49.622;6.126;2024-03-23T07:43:06;14.57;;;9.75;;
12908;SDS011;6522;49.622;6.126;2024-03-23T07:45:53;13.07;;;9.35;;
12908;SDS011;6522;49.622;6.126;2024-03-23T07:48:40;12.05;;;8.82;;
12908;SDS011;6522;49.622;6.126;2024-03-23T07:51:26;12.95;;;9.55;;
12908;SDS011;6522;49.622;6.126;2024-03-23T07:54:13;9.30;;;8.40;;
12908;SDS011;6522;49.622;6.126;2024-03-23T07:57:00;10.60;;;9.60;;
12908;SDS011;6522;49.622;6.126;2024-03-23T07:59:47;13.15;;;11.00;;
12908;SDS011;6522;49.622;6.126;2024-03-23T08:02:33;11.23;;;8.98;;
12908;SDS011;6522;49.622;6.126;2024-03-23T08:05:20;10.55;;;9.32;;
12908;SDS011;6522;49.622;6.126;2024-03-23T08:08:07;15.15;;;9.35;;
12908;SDS011;6522;49.622;6.126;2024-03-23T08:10:54;10.80;;;10.00;;
12908;SDS011;6522;49.622;6.126;2024-03-23T08:13:42;14.73;;;10.10;;
12908;SDS011;6522;49.622;6.126;2024-03-23T08:16:27;11.15;;;10.13;;
12908;SDS011;6522;49.622;6.126;2024-03-23T08:19:14;11.63;;;10.73;;
12908;SDS011;6522;49.622;6.126;2024-03-23T08:22:01;12.93;;;11.63;;
12908;SDS011;6522;49.622;6.126;2024-03-23T08:24:48;11.30;;;10.60;;
12908;SDS011;6522;49.622;6.126;2024-03-23T08:27:34;10.85;;;9.98;;
12908;SDS011;6522;49.622;6.126;2024-03-23T08:30:21;12.27;;;10.70;;
12908;SDS011;6522;49.622;6.126;2024-03-23T08:33:07;18.98;;;11.52;;
12908;SDS011;6522;49.622;6.126;2024-03-23T08:35:54;11.60;;;10.73;;
12908;SDS011;6522;49.622;6.126;2024-03-23T08:38:41;11.20;;;10.35;;
12908;SDS011;6522;49.622;6.126;2024-03-23T08:41:28;13.98;;;12.57;;
12908;SDS011;6522;49.622;6.126;2024-03-23T08:44:14;11.80;;;10.80;;
12908;SDS011;6522;49.622;6.126;2024-03-23T08:47:02;15.45;;;14.07;;
12908;SDS011;6522;49.622;6.126;2024-03-23T08:49:48;16.30;;;15.23;;
12908;SDS011;6522;49.622;6.126;2024-03-23T08:52:35;17.08;;;15.63;;
12908;SDS011;6522;49.622;6.126;2024-03-23T08:55:21;16.25;;;15.15;;
12908;SDS011;6522;49.622;6.126;2024-03-23T08:58:08;16.70;;;15.30;;
12908;SDS011;6522;49.622;6.126;2024-03-23T09:00:55;17.90;;;16.70;;
12908;SDS011;6522;49.622;6.126;2024-03-23T09:03:44;16.77;;;15.73;;
12908;SDS011;6522;49.622;6.126;2024-03-23T09:06:32;17.92;;;16.62;;
12908;SDS011;6522;49.622;6.126;2024-03-23T09:09:18;17.15;;;16.25;;
12908;SDS011;6522;49.622;6.126;2024-03-23T09:12:05;19.05;;;17.95;;
12908;SDS011;6522;49.622;6.126;2024-03-23T09:14:52;14.57;;;13.20;;
12908;SDS011;6522;49.622;6.126;2024-03-23T09:17:39;20.58;;;19.02;;
12908;SDS011;6522;49.622;6.126;2024-03-23T09:20:25;19.98;;;18.45;;
12908;SDS011;6522;49.622;6.126;2024-03-23T09:23:12;20.92;;;18.98;;
12908;SDS011;6522;49.622;6.126;2024-03-23T09:26:02;16.60;;;15.00;;
12908;SDS011;6522;49.622;6.126;2024-03-23T09:28:48;20.05;;;18.67;;
12908;SDS011;6522;49.622;6.126;2024-03-23T09:31:32;20.23;;;18.50;;
12908;SDS011;6522;49.622;6.126;2024-03-23T09:34:18;19.67;;;18.50;;
12908;SDS011;6522;49.622;6.126;2024-03-23T09:37:05;20.37;;;18.70;;
12908;SDS011;6522;49.622;6.126;2024-03-23T09:39:52;19.23;;;18.20;;
12908;SDS011;6522;49.622;6.126;2024-03-23T09:42:38;20.20;;;18.77;;
12908;SDS011;6522;49.622;6.126;2024-03-23T09:45:28;21.55;;;19.85;;
12908;SDS011;6522;49.622;6.126;2024-03-23T09:48:15;19.12;;;18.10;;
12908;SDS011;6522;49.622;6.126;2024-03-23T09:51:02;19.17;;;18.23;;
12908;SDS011;6522;49.622;6.126;2024-03-23T09:53:49;19.00;;;17.90;;
12908;SDS011;6522;49.622;6.126;2024-03-23T09:56:35;19.90;;;18.40;;
12908;SDS011;6522;49.622;6.126;2024-03-23T09:59:21;18.30;;;17.10;;
12908;SDS011;6522;49.622;6.126;2024-03-23T10:02:08;18.45;;;16.95;;
12908;SDS011;6522;49.622;6.126;2024-03-23T10:04:55;18.05;;;17.15;;
12908;SDS011;6522;49.622;6.126;2024-03-23T10:07:42;18.25;;;16.75;;
12908;SDS011;6522;49.622;6.126;2024-03-23T10:10:29;17.20;;;16.17;;
12908;SDS011;6522;49.622;6.126;2024-03-23T10:13:25;14.30;;;13.55;;
12908;SDS011;6522;49.622;6.126;2024-03-23T10:16:11;14.00;;;13.45;;
12908;SDS011;6522;49.622;6.126;2024-03-23T10:18:58;11.60;;;10.90;;
12908;SDS011;6522;49.622;6.126;2024-03-23T10:21:55;12.23;;;11.60;;
12908;SDS011;6522;49.622;6.126;2024-03-23T10:24:41;11.05;;;10.65;;
12908;SDS011;6522;49.622;6.126;2024-03-23T10:27:28;9.20;;;8.75;;
12908;SDS011;6522;49.622;6.126;2024-03-23T10:30:15;11.32;;;10.68;;
12908;SDS011;6522;49.622;6.126;2024-03-23T10:33:11;8.25;;;7.70;;
12908;SDS011;6522;49.622;6.126;2024-03-23T10:35:54;9.77;;;8.95;;
12908;SDS011;6522;49.622;6.126;2024-03-23T10:38:41;8.02;;;7.28;;
12908;SDS011;6522;49.622;6.126;2024-03-23T10:41:28;11.27;;;10.73;;
12908;SDS011;6522;49.622;6.126;2024-03-23T10:44:14;13.25;;;12.65;;
12908;SDS011;6522;49.622;6.126;2024-03-23T10:47:02;13.85;;;13.15;;
12908;SDS011;6522;49.622;6.126;2024-03-23T10:49:49;13.15;;;12.52;;
12908;SDS011;6522;49.622;6.126;2024-03-23T10:52:35;10.02;;;9.52;;
12908;SDS011;6522;49.622;6.126;2024-03-23T10:55:22;9.55;;;9.05;;
12908;SDS011;6522;49.622;6.126;2024-03-23T10:58:09;9.03;;;8.30;;
12908;SDS011;6522;49.622;6.126;2024-03-23T11:00:56;11.05;;;10.43;;
12908;SDS011;6522;49.622;6.126;2024-03-23T11:03:46;10.70;;;10.10;;
12908;SDS011;6522;49.622;6.126;2024-03-23T11:06:37;9.30;;;8.90;;
12908;SDS011;6522;49.622;6.126;2024-03-23T11:09:41;10.00;;;9.30;;
12908;SDS011;6522;49.622;6.126;2024-03-23T11:15:12;9.23;;;8.50;;
12908;SDS011;6522;49.622;6.126;2024-03-23T11:18:02;12.40;;;11.38;;
12908;SDS011;6522;49.622;6.126;2024-03-23T11:20:48;10.10;;;9.30;;
12908;SDS011;6522;49.622;6.126;2024-03-23T11:23:35;16.77;;;15.75;;
12908;SDS011;6522;49.622;6.126;2024-03-23T11:26:22;17.30;;;16.15;;
12908;SDS011;6522;49.622;6.126;2024-03-23T11:29:09;17.40;;;16.70;;
12908;SDS011;6522;49.622;6.126;2024-03-23T11:31:56;17.75;;;16.85;;
12908;SDS011;6522;49.622;6.126;2024-03-23T11:34:42;18.75;;;17.95;;
12908;SDS011;6522;49.622;6.126;2024-03-23T11:37:29;18.92;;;17.92;;
12908;SDS011;6522;49.622;6.126;2024-03-23T11:40:19;19.10;;;18.10;;
12908;SDS011;6522;49.622;6.126;2024-03-23T11:43:09;18.80;;;17.70;;
12908;SDS011;6522;49.622;6.126;2024-03-23T11:45:53;18.75;;;17.80;;
12908;SDS011;6522;49.622;6.126;2024-03-23T11:48:39;18.80;;;17.90;;
12908;SDS011;6522;49.622;6.126;2024-03-23T11:51:26;13.57;;;12.88;;
12908;SDS011;6522;49.622;6.126;2024-03-23T11:54:13;17.40;;;16.70;;
12908;SDS011;6522;49.622;6.126;2024-03-23T11:57:04;18.08;;;17.17;;
12908;SDS011;6522;49.622;6.126;2024-03-23T11:59:52;17.83;;;16.92;;
12908;SDS011;6522;49.622;6.126;2024-03-23T12:02:39;13.90;;;13.10;;
12908;SDS011;6522;49.622;6.126;2024-03-23T12:05:26;18.67;;;17.87;;
12908;SDS011;6522;49.622;6.126;2024-03-23T12:08:18;18.05;;;17.25;;
12908;SDS011;6522;49.622;6.126;2024-03-23T12:13:52;18.23;;;17.12;;
12908;SDS011;6522;49.622;6.126;2024-03-23T12:16:39;20.65;;;19.70;;
12908;SDS011;6522;49.622;6.126;2024-03-23T12:19:25;18.30;;;17.60;;
12908;SDS011;6522;49.622;6.126;2024-03-23T12:22:12;16.45;;;15.75;;
12908;SDS011;6522;49.622;6.126;2024-03-23T12:24:59;12.25;;;11.65;;
12908;SDS011;6522;49.622;6.126;2024-03-23T12:27:46;14.15;;;13.55;;
12908;SDS011;6522;49.622;6.126;2024-03-23T12:30:38;14.15;;;13.38;;
12908;SDS011;6522;49.622;6.126;2024-03-23T12:33:23;14.40;;;13.80;;
12908;SDS011;6522;49.622;6.126;2024-03-23T12:36:09;17.58;;;16.70;;
12908;SDS011;6522;49.622;6.126;2024-03-23T12:38:56;17.17;;;16.37;;
12908;SDS011;6522;49.622;6.126;2024-03-23T12:41:43;16.30;;;15.50;;
12908;SDS011;6522;49.622;6.126;2024-03-23T12:44:30;15.65;;;14.95;;
12908;SDS011;6522;49.622;6.126;2024-03-23T12:47:16;14.82;;;14.02;;
12908;SDS011;6522;49.622;6.126;2024-03-23T12:50:03;11.63;;;10.73;;
12908;SDS011;6522;49.622;6.126;2024-03-23T12:52:50;11.70;;;11.10;;
12908;SDS011;6522;49.622;6.126;2024-03-23T12:55:37;10.88;;;10.02;;
12908;SDS011;6522;49.622;6.126;2024-03-23T12:58:24;11.52;;;11.00;;
12908;SDS011;6522;49.622;6.126;2024-03-23T13:01:11;13.15;;;12.65;;
12908;SDS011;6522;49.622;6.126;2024-03-23T13:03:57;12.95;;;12.45;;
12908;SDS011;6522;49.622;6.126;2024-03-23T13:06:44;11.68;;;11.00;;
12908;SDS011;6522;49.622;6.126;2024-03-23T13:09:31;12.63;;;12.13;;
12908;SDS011;6522;49.622;6.126;2024-03-23T13:12:18;10.77;;;10.27;;
12908;SDS011;6522;49.622;6.126;2024-03-23T13:15:04;11.20;;;10.70;;
12908;SDS011;6522;49.622;6.126;2024-03-23T13:17:51;11.85;;;11.25;;
12908;SDS011;6522;49.622;6.126;2024-03-23T13:20:38;14.10;;;13.40;;
12908;SDS011;6522;49.622;6.126;2024-03-23T13:23:25;16.00;;;15.32;;
12908;SDS011;6522;49.622;6.126;2024-03-23T13:26:11;17.98;;;15.48;;
12908;SDS011;6522;49.622;6.126;2024-03-23T13:28:58;12.10;;;11.30;;
12908;SDS011;6522;49.622;6.126;2024-03-23T13:31:46;13.20;;;12.40;;
12908;SDS011;6522;49.622;6.126;2024-03-23T13:34:32;17.05;;;16.10;;
12908;SDS011;6522;49.622;6.126;2024-03-23T13:37:19;16.30;;;15.50;;
12908;SDS011;6522;49.622;6.126;2024-03-23T13:40:06;12.55;;;11.85;;
12908;SDS011;6522;49.622;6.126;2024-03-23T13:42:53;17.35;;;16.42;;
12908;SDS011;6522;49.622;6.126;2024-03-23T13:45:40;16.65;;;15.80;;
12908;SDS011;6522;49.622;6.126;2024-03-23T13:48:27;14.80;;;14.20;;
12908;SDS011;6522;49.622;6.126;2024-03-23T13:51:13;13.90;;;13.30;;
12908;SDS011;6522;49.622;6.126;2024-03-23T13:54:00;15.52;;;14.52;;
12908;SDS011;6522;49.622;6.126;2024-03-23T13:56:50;16.12;;;15.32;;
12908;SDS011;6522;49.622;6.126;2024-03-23T13:59:36;14.48;;;13.77;;
12908;SDS011;6522;49.622;6.126;2024-03-23T14:02:23;15.65;;;14.87;;
12908;SDS011;6522;49.622;6.126;2024-03-23T14:05:10;13.40;;;12.80;;
12908;SDS011;6522;49.622;6.126;2024-03-23T14:07:57;13.32;;;12.82;;
12908;SDS011;6522;49.622;6.126;2024-03-23T14:10:44;13.77;;;13.10;;
12908;SDS011;6522;49.622;6.126;2024-03-23T14:13:30;9.60;;;9.10;;
12908;SDS011;6522;49.622;6.126;2024-03-23T14:16:17;11.05;;;10.65;;
12908;SDS011;6522;49.622;6.126;2024-03-23T14:19:04;14.77;;;14.07;;
12908;SDS011;6522;49.622;6.126;2024-03-23T14:21:54;11.10;;;10.70;;
12908;SDS011;6522;49.622;6.126;2024-03-23T14:24:40;10.98;;;10.02;;
12908;SDS011;6522;49.622;6.126;2024-03-23T14:27:27;9.25;;;8.75;;
12908;SDS011;6522;49.622;6.126;2024-03-23T14:30:14;9.93;;;9.52;;
12908;SDS011;6522;49.622;6.126;2024-03-23T14:33:01;7.60;;;7.30;;
12908;SDS011;6522;49.622;6.126;2024-03-23T14:35:56;10.20;;;9.45;;
12908;SDS011;6522;49.622;6.126;2024-03-23T14:38:40;7.50;;;7.00;;
12908;SDS011;6522;49.622;6.126;2024-03-23T14:41:27;10.20;;;9.70;;
12908;SDS011;6522;49.622;6.126;2024-03-23T14:44:13;8.93;;;8.63;;
12908;SDS011;6522;49.622;6.126;2024-03-23T14:47:00;9.60;;;9.10;;
12908;SDS011;6522;49.622;6.126;2024-03-23T14:49:48;8.90;;;8.52;;
12908;SDS011;6522;49.622;6.126;2024-03-23T14:52:34;9.10;;;8.50;;
12908;SDS011;6522;49.622;6.126;2024-03-23T14:55:21;7.28;;;6.95;;
12908;SDS011;6522;49.622;6.126;2024-03-23T14:58:08;7.50;;;7.20;;
12908;SDS011;6522;49.622;6.126;2024-03-23T15:01:04;7.40;;;6.90;;
12908;SDS011;6522;49.622;6.126;2024-03-23T15:03:47;8.93;;;6.97;;
12908;SDS011;6522;49.622;6.126;2024-03-23T15:06:34;6.60;;;6.10;;
12908;SDS011;6522;49.622;6.126;2024-03-23T15:09:21;8.10;;;7.60;;
12908;SDS011;6522;49.622;6.126;2024-03-23T15:12:08;7.18;;;6.60;;
12908;SDS011;6522;49.622;6.126;2024-03-23T15:14:55;7.43;;;7.12;;
12908;SDS011;6522;49.622;6.126;2024-03-23T15:17:41;7.40;;;7.10;;
12908;SDS011;6522;49.622;6.126;2024-03-23T15:20:28;7.65;;;7.25;;
12908;SDS011;6522;49.622;6.126;2024-03-23T15:23:15;7.68;;;7.37;;
12908;SDS011;6522;49.622;6.126;2024-03-23T15:26:02;7.95;;;7.45;;
12908;SDS011;6522;49.622;6.126;2024-03-23T15:28:49;8.63;;;8.15;;
12908;SDS011;6522;49.622;6.126;2024-03-23T15:31:45;7.55;;;7.25;;
12908;SDS011;6522;49.622;6.126;2024-03-23T15:34:32;8.68;;;8.25;;
12908;SDS011;6522;49.622;6.126;2024-03-23T15:37:18;7.18;;;6.87;;
12908;SDS011;6522;49.622;6.126;2024-03-23T15:40:06;7.30;;;6.82;;
12908;SDS011;6522;49.622;6.126;2024-03-23T15:42:52;7.80;;;7.50;;
12908;SDS011;6522;49.622;6.126;2024-03-23T15:45:39;7.32;;;7.03;;
12908;SDS011;6522;49.622;6.126;2024-03-23T15:48:29;6.53;;;6.18;;
12908;SDS011;6522;49.622;6.126;2024-03-23T15:51:16;6.47;;;6.18;;
12908;SDS011;6522;49.622;6.126;2024-03-23T15:54:03;5.43;;;5.05;;
12908;SDS011;6522;49.622;6.126;2024-03-23T15:56:50;7.32;;;6.80;;
12908;SDS011;6522;49.622;6.126;2024-03-23T15:59:39;5.93;;;5.72;;
12908;SDS011;6522;49.622;6.126;2024-03-23T16:02:23;6.37;;;6.03;;
12908;SDS011;6522;49.622;6.126;2024-03-23T16:05:10;6.12;;;5.78;;
12908;SDS011;6522;49.622;6.126;2024-03-23T16:07:57;6.70;;;6.30;;
12908;SDS011;6522;49.622;6.126;2024-03-23T16:10:43;5.78;;;5.47;;
12908;SDS011;6522;49.622;6.126;2024-03-23T16:13:30;4.37;;;4.18;;
12908;SDS011;6522;49.622;6.126;2024-03-23T16:16:17;6.53;;;6.12;;
12908;SDS011;6522;49.622;6.126;2024-03-23T16:19:04;6.70;;;6.40;;
12908;SDS011;6522;49.622;6.126;2024-03-23T16:21:51;4.95;;;4.65;;
12908;SDS011;6522;49.622;6.126;2024-03-23T16:24:37;5.50;;;5.30;;
12908;SDS011;6522;49.622;6.126;2024-03-23T16:27:24;5.30;;;5.10;;
12908;SDS011;6522;49.622;6.126;2024-03-23T16:30:11;4.82;;;4.62;;
12908;SDS011;6522;49.622;6.126;2024-03-23T16:32:58;6.45;;;6.15;;
12908;SDS011;6522;49.622;6.126;2024-03-23T16:35:44;4.30;;;4.00;;
12908;SDS011;6522;49.622;6.126;2024-03-23T16:38:32;4.37;;;3.97;;
12908;SDS011;6522;49.622;6.126;2024-03-23T16:41:21;5.03;;;4.60;;
12908;SDS011;6522;49.622;6.126;2024-03-23T16:44:08;5.50;;;5.18;;
12908;SDS011;6522;49.622;6.126;2024-03-23T16:46:54;3.50;;;3.30;;
12908;SDS011;6522;49.622;6.126;2024-03-23T16:49:41;3.50;;;3.30;;
12908;SDS011;6522;49.622;6.126;2024-03-23T16:52:28;4.18;;;3.97;;
12908;SDS011;6522;49.622;6.126;2024-03-23T16:55:14;4.00;;;3.75;;
12908;SDS011;6522;49.622;6.126;2024-03-23T16:58:01;5.60;;;3.10;;
12908;SDS011;6522;49.622;6.126;2024-03-23T17:00:48;4.60;;;4.30;;
12908;SDS011;6522;49.622;6.126;2024-03-23T17:03:35;3.78;;;3.55;;
12908;SDS011;6522;49.622;6.126;2024-03-23T17:06:21;4.10;;;3.90;;
12908;SDS011;6522;49.622;6.126;2024-03-23T17:09:08;3.72;;;3.53;;
12908;SDS011;6522;49.622;6.126;2024-03-23T17:11:58;4.28;;;3.12;;
12908;SDS011;6522;49.622;6.126;2024-03-23T17:14:45;3.97;;;3.62;;
12908;SDS011;6522;49.622;6.126;2024-03-23T17:17:31;4.12;;;3.85;;
12908;SDS011;6522;49.622;6.126;2024-03-23T17:20:18;4.70;;;4.40;;
12908;SDS011;6522;49.622;6.126;2024-03-23T17:23:05;3.05;;;2.85;;
12908;SDS011;6522;49.622;6.126;2024-03-23T17:25:52;3.15;;;2.95;;
12908;SDS011;6522;49.622;6.126;2024-03-23T17:28:39;3.30;;;2.78;;
12908;SDS011;6522;49.622;6.126;2024-03-23T17:31:26;3.28;;;3.08;;
12908;SDS011;6522;49.622;6.126;2024-03-23T17:34:13;3.40;;;2.58;;
12908;SDS011;6522;49.622;6.126;2024-03-23T17:37:00;3.40;;;2.92;;
12908;SDS011;6522;49.622;6.126;2024-03-23T17:39:46;2.65;;;2.45;;
12908;SDS011;6522;49.622;6.126;2024-03-23T17:42:34;3.25;;;3.05;;
12908;SDS011;6522;49.622;6.126;2024-03-23T17:45:20;3.80;;;3.60;;